createdAt,value
2018-11-02T00:01:45.654Z,15.63
2018-11-02T00:04:15.633Z,11.87
2018-11-02T00:06:45.100Z,12.27
2018-11-02T00:09:14.668Z,11.00
2018-11-02T00:11:44.208Z,8.83
2018-11-02T00:14:13.777Z,8.47
2018-11-02T00:16:43.160Z,8.60
2018-11-02T00:19:12.573Z,9.10
2018-11-02T00:21:42.517Z,9.47
2018-11-02T00:24:12.024Z,13.27
2018-11-02T00:26:41.554Z,11.93
2018-11-02T00:29:11.730Z,10.47
2018-11-02T00:31:41.178Z,10.07
2018-11-02T00:34:10.766Z,9.20
2018-11-02T00:36:40.271Z,7.00
2018-11-02T00:39:10.707Z,6.77
2018-11-02T00:41:40.609Z,6.90
2018-11-02T00:44:10.800Z,5.67
2018-11-02T00:46:40.953Z,6.83
2018-11-02T00:49:10.585Z,6.67
2018-11-02T00:51:40.148Z,5.73
2018-11-02T00:54:09.848Z,6.90
2018-11-02T00:56:39.426Z,7.07
2018-11-02T00:59:08.894Z,6.20
2018-11-02T01:01:38.318Z,7.47
2018-11-02T01:04:08.188Z,6.10
2018-11-02T01:06:37.564Z,6.80
2018-11-02T01:09:09.730Z,8.73
2018-11-02T01:11:39.258Z,7.00
2018-11-02T01:14:08.802Z,7.40
2018-11-02T01:16:38.437Z,6.50
2018-11-02T01:19:07.904Z,6.23
2018-11-02T01:21:37.376Z,16.23
2018-11-02T01:24:07.039Z,13.07
2018-11-02T01:26:36.492Z,10.90
2018-11-02T01:29:06.131Z,7.97
2018-11-02T01:31:35.628Z,11.20
2018-11-02T01:34:05.349Z,16.87
2018-11-02T01:36:34.857Z,17.37
2018-11-02T01:39:04.577Z,20.97
2018-11-02T01:41:34.064Z,19.23
2018-11-02T01:44:03.420Z,18.73
2018-11-02T01:46:32.921Z,17.80
2018-11-02T01:49:02.355Z,18.33
2018-11-02T01:51:31.862Z,17.27
2018-11-02T01:54:01.343Z,13.27
2018-11-02T01:56:30.895Z,15.83
2018-11-02T01:59:00.379Z,14.53
2018-11-02T02:01:29.961Z,13.17
2018-11-02T02:04:00.292Z,16.50
2018-11-02T02:06:30.604Z,14.63
2018-11-02T02:08:59.998Z,12.50
2018-11-02T02:11:29.564Z,12.07
2018-11-02T02:13:59.151Z,10.93
2018-11-02T02:16:28.686Z,12.20
2018-11-02T02:18:58.314Z,12.70
2018-11-02T02:21:27.932Z,12.30
2018-11-02T02:23:57.478Z,13.53
2018-11-02T02:26:26.888Z,11.73
2018-11-02T02:28:56.359Z,10.40
2018-11-02T02:31:26.531Z,9.70
2018-11-02T02:33:55.978Z,9.53
2018-11-02T02:36:25.326Z,8.73
2018-11-02T02:38:54.788Z,6.73
2018-11-02T02:41:24.394Z,5.77
2018-11-02T02:43:53.936Z,6.17
2018-11-02T02:46:23.496Z,6.63
2018-11-02T02:48:53.459Z,11.27
2018-11-02T02:51:22.982Z,6.53
2018-11-02T02:53:52.482Z,10.07
2018-11-02T02:56:21.989Z,7.40
2018-11-02T02:58:51.552Z,5.97
2018-11-02T03:01:21.583Z,7.13
2018-11-02T03:03:51.095Z,6.87
2018-11-02T03:06:20.671Z,6.60
2018-11-02T03:08:50.097Z,7.27
2018-11-02T03:11:20.099Z,6.93
2018-11-02T03:13:50.416Z,9.60
2018-11-02T03:16:19.976Z,7.10
2018-11-02T03:18:49.666Z,7.23
2018-11-02T03:21:19.045Z,6.13
2018-11-02T03:23:48.495Z,5.43
2018-11-02T03:26:18.101Z,5.33
2018-11-02T03:28:47.714Z,6.67
2018-11-02T03:31:17.078Z,5.57
2018-11-02T03:33:46.483Z,5.47
2018-11-02T03:36:16.471Z,7.13
2018-11-02T03:38:45.935Z,9.80
2018-11-02T03:41:15.370Z,8.30
2018-11-02T03:43:44.834Z,6.67
2018-11-02T03:46:14.306Z,7.50
2018-11-02T03:48:43.862Z,7.73
2018-11-02T03:51:13.379Z,6.13
2018-11-02T03:53:42.997Z,7.93
2018-11-02T03:56:12.416Z,6.67
2018-11-02T03:58:42.032Z,9.03
2018-11-02T04:01:11.484Z,7.20
2018-11-02T04:03:42.321Z,8.53
2018-11-02T04:06:11.844Z,8.37
2018-11-02T04:08:41.744Z,7.03
2018-11-02T04:11:11.249Z,8.07
2018-11-02T04:13:40.822Z,7.13
2018-11-02T04:16:10.366Z,7.03
2018-11-02T04:18:39.792Z,7.13
2018-11-02T04:21:09.461Z,10.87
2018-11-02T04:23:39.437Z,7.63
2018-11-02T04:26:08.967Z,7.67
2018-11-02T04:28:38.499Z,7.63
2018-11-02T04:31:08.014Z,7.50
2018-11-02T04:33:37.541Z,8.80
2018-11-02T04:36:07.471Z,7.20
2018-11-02T04:38:36.981Z,11.03
2018-11-02T04:41:06.521Z,11.63
2018-11-02T04:43:35.996Z,9.27
2018-11-02T04:46:05.392Z,8.43
2018-11-02T04:48:34.960Z,10.17
2018-11-02T04:51:04.564Z,10.93
2018-11-02T04:53:33.969Z,10.63
2018-11-02T04:56:04.068Z,9.77
2018-11-02T04:58:33.668Z,8.33
2018-11-02T05:01:03.483Z,7.30
2018-11-02T05:03:32.916Z,9.57
2018-11-02T05:06:02.416Z,8.87
2018-11-02T05:08:31.784Z,9.43
2018-11-02T05:11:01.349Z,8.70
2018-11-02T05:13:30.916Z,7.50
2018-11-02T05:16:00.488Z,6.47
2018-11-02T05:18:30.730Z,6.43
2018-11-02T05:21:00.177Z,8.53
2018-11-02T05:23:29.776Z,6.80
2018-11-02T05:26:00.019Z,8.43
2018-11-02T05:28:29.587Z,8.03
2018-11-02T05:30:59.187Z,7.80
2018-11-02T05:33:28.617Z,7.67
2018-11-02T05:35:58.552Z,6.63
2018-11-02T05:38:28.209Z,6.77
2018-11-02T05:40:57.784Z,6.83
2018-11-02T05:43:27.258Z,6.80
2018-11-02T05:45:56.726Z,7.00
2018-11-02T05:48:26.187Z,7.60
2018-11-02T05:50:56.197Z,7.53
2018-11-02T05:53:25.729Z,6.10
2018-11-02T05:55:55.230Z,6.27
2018-11-02T05:58:24.699Z,7.77
2018-11-02T06:00:54.222Z,6.73
2018-11-02T06:03:23.663Z,6.90
2018-11-02T06:05:53.089Z,9.60
2018-11-02T06:08:22.522Z,6.30
2018-11-02T06:10:52.014Z,5.93
2018-11-02T06:13:21.681Z,7.13
2018-11-02T06:15:51.237Z,8.83
2018-11-02T06:18:20.702Z,13.20
2018-11-02T06:20:50.383Z,9.53
2018-11-02T06:23:20.635Z,10.30
2018-11-02T06:25:50.114Z,9.17
2018-11-02T06:28:19.652Z,10.43
2018-11-02T06:30:49.274Z,9.70
2018-11-02T06:33:19.251Z,10.13
2018-11-02T06:35:48.704Z,9.20
2018-11-02T06:38:18.260Z,11.40
2018-11-02T06:40:47.728Z,7.97
2018-11-02T06:43:17.344Z,8.70
2018-11-02T06:45:46.780Z,7.13
2018-11-02T06:48:16.134Z,9.23
2018-11-02T06:50:45.731Z,7.90
2018-11-02T06:53:15.284Z,6.10
2018-11-02T06:55:45.212Z,11.00
2018-11-02T06:58:14.716Z,5.10
2018-11-02T07:00:44.186Z,7.87
2018-11-02T07:03:13.585Z,8.50
2018-11-02T07:05:43.041Z,8.33
2018-11-02T07:08:13.782Z,6.63
2018-11-02T07:10:43.117Z,6.00
2018-11-02T07:13:12.550Z,7.10
2018-11-02T07:15:41.969Z,7.27
2018-11-02T07:18:11.501Z,9.47
2018-11-02T07:20:41.358Z,6.70
2018-11-02T07:23:10.849Z,8.07
2018-11-02T07:25:40.553Z,7.10
2018-11-02T07:28:09.959Z,6.77
2018-11-02T07:30:39.546Z,7.13
2018-11-02T07:33:09.115Z,11.33
2018-11-02T07:35:38.624Z,7.67
2018-11-02T07:38:08.133Z,7.33
2018-11-02T07:40:38.647Z,10.50
2018-11-02T07:43:08.023Z,7.93
2018-11-02T07:45:37.570Z,7.07
2018-11-02T07:48:07.182Z,7.43
2018-11-02T07:50:36.610Z,7.37
2018-11-02T07:53:06.534Z,7.10
2018-11-02T07:55:36.080Z,8.03
2018-11-02T07:58:05.815Z,7.50
2018-11-02T08:00:35.440Z,7.17
2018-11-02T08:03:05.133Z,10.70
2018-11-02T08:05:35.308Z,8.10
2018-11-02T08:08:05.374Z,9.10
2018-11-02T08:10:34.973Z,8.57
2018-11-02T08:13:04.352Z,6.70
2018-11-02T08:15:33.749Z,7.60
2018-11-02T08:18:03.129Z,7.97
2018-11-02T08:20:32.585Z,6.37
2018-11-02T08:23:02.165Z,8.13
2018-11-02T08:25:31.701Z,7.90
2018-11-02T08:28:01.241Z,6.37
2018-11-02T08:30:30.633Z,6.63
2018-11-02T08:33:00.217Z,6.10
2018-11-02T08:35:29.748Z,6.60
2018-11-02T08:37:59.710Z,5.30
2018-11-02T08:40:29.182Z,5.57
2018-11-02T08:42:58.748Z,5.23
2018-11-02T08:45:28.750Z,4.80
2018-11-02T08:47:58.976Z,5.00
2018-11-02T08:50:28.492Z,5.17
2018-11-02T08:52:58.172Z,7.53
2018-11-02T08:55:27.692Z,6.50
2018-11-02T08:57:57.213Z,4.70
2018-11-02T09:00:26.567Z,4.60
2018-11-02T09:02:55.985Z,4.97
2018-11-02T09:05:25.393Z,4.60
2018-11-02T09:07:55.680Z,7.40
2018-11-02T09:10:25.678Z,9.50
2018-11-02T09:12:55.234Z,6.50
2018-11-02T09:15:24.763Z,4.30
2018-11-02T09:17:54.306Z,5.27
2018-11-02T09:20:23.781Z,4.70
2018-11-02T09:22:53.273Z,4.00
2018-11-02T09:25:22.861Z,3.83
2018-11-02T09:27:52.419Z,4.37
2018-11-02T09:30:22.607Z,4.97
2018-11-02T09:32:52.071Z,4.87
2018-11-02T09:35:21.671Z,4.00
2018-11-02T09:37:51.999Z,4.20
2018-11-02T09:40:21.569Z,4.60
2018-11-02T09:42:51.377Z,4.67
2018-11-02T09:45:20.915Z,6.27
2018-11-02T09:47:50.537Z,6.37
2018-11-02T09:50:20.233Z,5.53
2018-11-02T09:52:49.767Z,6.97
2018-11-02T09:55:19.255Z,9.13
2018-11-02T09:57:48.854Z,8.40
2018-11-02T10:00:18.254Z,6.70
2018-11-02T10:02:47.699Z,6.87
2018-11-02T10:05:17.226Z,10.23
2018-11-02T10:07:46.740Z,7.53
2018-11-02T10:10:16.215Z,9.83
2018-11-02T10:12:45.866Z,7.57
2018-11-02T10:15:16.111Z,8.87
2018-11-02T10:17:46.111Z,8.33
2018-11-02T10:20:15.671Z,6.90
2018-11-02T10:22:45.056Z,7.33
2018-11-02T10:25:18.566Z,8.17
2018-11-02T10:27:48.482Z,8.17
2018-11-02T10:30:18.154Z,8.80
2018-11-02T10:32:50.942Z,7.70
2018-11-02T10:35:20.558Z,10.17
2018-11-02T10:37:50.524Z,9.53
2018-11-02T10:40:20.255Z,8.70
2018-11-02T10:43:00.685Z,9.40
2018-11-02T10:45:36.189Z,7.93
2018-11-02T10:48:07.263Z,8.87
2018-11-02T10:50:36.832Z,10.83
2018-11-02T10:53:06.461Z,7.53
2018-11-02T10:55:36.631Z,8.53
2018-11-02T10:58:06.511Z,9.67
2018-11-02T11:00:41.362Z,7.17
2018-11-02T11:03:11.131Z,9.33
2018-11-02T11:05:40.725Z,8.23
2018-11-02T11:08:10.266Z,7.47
2018-11-02T11:10:39.733Z,9.27
2018-11-02T11:13:09.479Z,8.67
2018-11-02T11:15:43.567Z,9.40
2018-11-02T11:18:13.635Z,9.23
2018-11-02T11:20:43.463Z,10.67
2018-11-02T11:23:13.035Z,9.40
2018-11-02T11:25:42.623Z,10.30
2018-11-02T11:28:12.012Z,10.80
2018-11-02T11:30:42.595Z,10.50
2018-11-02T11:33:12.646Z,10.73
2018-11-02T11:35:42.147Z,11.37
2018-11-02T11:38:11.766Z,10.07
2018-11-02T11:40:41.728Z,9.70
2018-11-02T11:43:11.476Z,11.00
2018-11-02T11:45:41.220Z,10.77
2018-11-02T11:48:10.815Z,11.20
2018-11-02T11:50:40.405Z,11.23
2018-11-02T11:53:10.330Z,12.20
2018-11-02T11:55:40.132Z,12.13
2018-11-02T11:58:10.082Z,9.63
2018-11-02T12:00:39.739Z,10.37
2018-11-02T12:03:09.296Z,11.33
2018-11-02T12:05:38.972Z,11.70
2018-11-02T12:08:08.719Z,10.37
2018-11-02T12:10:38.187Z,11.27
2018-11-02T12:13:07.724Z,10.90
2018-11-02T12:15:37.772Z,10.57
2018-11-02T12:18:07.601Z,12.37
2018-11-02T12:20:37.139Z,10.27
2018-11-02T12:23:07.461Z,10.53
2018-11-02T12:25:37.084Z,10.93
2018-11-02T12:28:07.025Z,11.20
2018-11-02T12:30:37.071Z,10.40
2018-11-02T12:33:07.031Z,10.23
2018-11-02T12:35:36.792Z,11.47
2018-11-02T12:38:06.234Z,9.47
2018-11-02T12:40:37.027Z,11.50
2018-11-02T12:43:07.250Z,11.17
2018-11-02T12:45:36.712Z,11.17
2018-11-02T12:48:06.759Z,10.80
2018-11-02T12:50:36.297Z,11.30
2018-11-02T12:53:08.410Z,10.40
2018-11-02T12:55:39.372Z,10.80
2018-11-02T12:58:09.062Z,12.10
2018-11-02T13:00:38.738Z,9.77
2018-11-02T13:03:08.512Z,10.20
2018-11-02T13:05:38.265Z,10.90
2018-11-02T13:08:07.808Z,11.40
2018-11-02T13:10:37.283Z,10.00
2018-11-02T13:13:06.955Z,11.43
2018-11-02T13:15:36.480Z,11.10
2018-11-02T13:18:06.681Z,10.80
2018-11-02T13:20:36.179Z,10.67
2018-11-02T13:23:05.712Z,12.70
2018-11-02T13:25:35.306Z,9.90
2018-11-02T13:28:04.667Z,10.43
2018-11-02T13:30:34.761Z,10.47
2018-11-02T13:33:04.214Z,11.00
2018-11-02T13:35:33.682Z,10.87
2018-11-02T13:38:03.220Z,12.23
2018-11-02T13:40:32.730Z,10.70
2018-11-02T13:43:02.411Z,10.37
2018-11-02T13:45:31.912Z,11.30
2018-11-02T13:48:01.627Z,11.90
2018-11-02T13:50:31.284Z,11.13
2018-11-02T13:53:01.153Z,10.83
2018-11-02T13:55:30.862Z,10.07
2018-11-02T13:58:00.497Z,11.10
2018-11-02T14:00:30.499Z,10.03
2018-11-02T14:03:00.194Z,10.27
2018-11-02T14:05:30.363Z,11.10
2018-11-02T14:07:59.930Z,13.80
2018-11-02T14:10:29.890Z,11.03
2018-11-02T14:12:59.416Z,11.03
2018-11-02T14:15:28.960Z,10.10
2018-11-02T14:17:58.990Z,11.27
2018-11-02T14:20:28.542Z,11.47
2018-11-02T14:22:58.158Z,10.27
2018-11-02T14:25:27.765Z,10.60
2018-11-02T14:27:57.166Z,12.00
2018-11-02T14:30:26.703Z,10.90
2018-11-02T14:33:00.785Z,11.50
2018-11-02T14:35:30.866Z,13.10
2018-11-02T14:38:00.512Z,12.73
2018-11-02T14:40:30.039Z,11.97
2018-11-02T14:42:59.680Z,18.80
2018-11-02T14:45:29.802Z,13.07
2018-11-02T14:47:59.389Z,14.17
2018-11-02T14:50:29.203Z,13.10
2018-11-02T14:52:58.639Z,13.77
2018-11-02T14:55:28.484Z,14.83
2018-11-02T14:57:57.955Z,17.20
2018-11-02T15:00:27.565Z,15.07
2018-11-02T15:02:57.125Z,14.57
2018-11-02T15:05:26.616Z,15.97
2018-11-02T15:07:56.351Z,15.83
2018-11-02T15:10:26.579Z,15.17
2018-11-02T15:12:56.072Z,15.43
2018-11-02T15:15:25.687Z,15.90
2018-11-02T15:17:55.203Z,15.73
2018-11-02T15:20:24.770Z,18.13
2018-11-02T15:22:54.946Z,17.13
2018-11-02T15:25:24.568Z,19.43
2018-11-02T15:27:54.028Z,19.03
2018-11-02T15:30:23.508Z,21.13
2018-11-02T15:32:52.982Z,19.03
2018-11-02T15:35:22.579Z,22.07
2018-11-02T15:37:52.494Z,19.87
2018-11-02T15:40:22.844Z,22.17
2018-11-02T15:42:52.630Z,25.53
2018-11-02T15:45:22.179Z,29.53
2018-11-02T15:47:52.061Z,26.00
2018-11-02T15:50:21.549Z,26.97
2018-11-02T15:52:51.095Z,28.43
2018-11-02T15:55:22.466Z,29.33
2018-11-02T15:57:52.806Z,30.90
2018-11-02T16:00:22.823Z,28.30
2018-11-02T16:02:53.089Z,31.37
2018-11-02T16:05:22.549Z,34.13
2018-11-02T16:07:52.770Z,32.63
2018-11-02T16:10:22.443Z,31.27
2018-11-02T16:12:51.991Z,33.70
2018-11-02T16:15:21.449Z,32.63
2018-11-02T16:17:51.096Z,36.27
2018-11-02T16:20:20.722Z,37.60
2018-11-02T16:22:50.180Z,34.00
2018-11-02T16:25:20.900Z,32.10
2018-11-02T16:27:51.267Z,35.60
2018-11-02T16:30:21.667Z,30.80
2018-11-02T16:32:52.821Z,31.00
2018-11-02T16:35:22.684Z,29.27
2018-11-02T16:37:53.904Z,23.87
2018-11-02T16:40:24.329Z,31.03
2018-11-02T16:42:54.312Z,29.33
2018-11-02T16:45:23.937Z,30.23
2018-11-02T16:47:53.809Z,31.00
2018-11-02T16:50:23.319Z,30.70
2018-11-02T16:52:52.710Z,27.83
2018-11-02T16:55:22.701Z,29.63
2018-11-02T16:57:52.437Z,32.50
2018-11-02T17:00:21.915Z,29.37
2018-11-02T17:02:51.517Z,27.63
2018-11-02T17:05:21.851Z,33.30
2018-11-02T17:07:51.863Z,33.50
2018-11-02T17:10:21.392Z,37.93
2018-11-02T17:12:51.190Z,36.90
2018-11-02T17:15:20.813Z,34.50
2018-11-02T17:17:50.471Z,43.80
2018-11-02T17:20:20.054Z,39.47
2018-11-02T17:22:49.612Z,43.30
2018-11-02T17:25:19.258Z,56.10
2018-11-02T17:27:55.388Z,54.23
2018-11-02T17:30:26.289Z,45.50
2018-11-02T17:32:57.294Z,72.10
2018-11-02T17:35:29.984Z,64.47
2018-11-02T17:37:59.869Z,50.30
2018-11-02T17:40:31.694Z,35.43
2018-11-02T17:43:02.073Z,33.53
2018-11-02T17:45:31.973Z,28.73
2018-11-02T17:48:03.304Z,32.73
2018-11-02T17:50:35.305Z,34.00
2018-11-02T17:53:05.891Z,37.30
2018-11-02T17:55:35.906Z,37.10
2018-11-02T17:58:07.508Z,38.37
2018-11-02T18:00:37.359Z,32.13
2018-11-02T18:03:09.551Z,31.57
2018-11-02T18:05:40.884Z,34.23
2018-11-02T18:08:12.808Z,34.63
2018-11-02T18:10:44.242Z,33.73
2018-11-02T18:13:14.957Z,35.47
2018-11-02T18:15:51.317Z,35.43
2018-11-02T18:18:22.034Z,36.30
2018-11-02T18:20:58.433Z,40.40
2018-11-02T18:23:30.623Z,37.33
2018-11-02T18:26:00.685Z,34.57
2018-11-02T18:28:32.068Z,38.30
2018-11-02T18:31:02.235Z,37.47
2018-11-02T18:33:34.232Z,30.37
2018-11-02T18:36:04.208Z,29.97
2018-11-02T18:38:34.465Z,31.80
2018-11-02T18:41:04.393Z,37.80
2018-11-02T18:43:37.590Z,42.80
2018-11-02T18:46:10.841Z,42.47
2018-11-02T18:48:46.905Z,46.77
2018-11-02T18:51:18.034Z,46.23
2018-11-02T18:53:47.980Z,42.57
2018-11-02T18:56:18.026Z,40.10
2018-11-02T18:58:47.793Z,36.20
2018-11-02T19:01:20.992Z,35.60
2018-11-02T19:03:50.832Z,38.57
2018-11-02T19:06:23.074Z,33.40
2018-11-02T19:08:52.998Z,35.10
2018-11-02T19:11:23.970Z,32.93
2018-11-02T19:13:53.930Z,29.77
2018-11-02T19:16:24.898Z,35.90
2018-11-02T19:18:54.923Z,32.33
2018-11-02T19:21:25.848Z,34.30
2018-11-02T19:23:57.226Z,40.60
2018-11-02T19:26:26.720Z,42.33
2018-11-02T19:28:58.752Z,52.07
2018-11-02T19:31:28.285Z,60.97
2018-11-02T19:33:58.264Z,50.77
2018-11-02T19:36:28.836Z,49.07
2018-11-02T19:39:03.830Z,47.90
2018-11-02T19:41:35.105Z,40.73
2018-11-02T19:44:05.368Z,29.03
2018-11-02T19:46:34.968Z,33.13
2018-11-02T19:49:07.296Z,31.37
2018-11-02T19:51:42.425Z,38.27
2018-11-02T19:54:12.626Z,37.77
2018-11-02T19:56:42.184Z,41.87
2018-11-02T19:59:12.224Z,47.47
2018-11-02T20:01:43.165Z,59.57
2018-11-02T20:04:12.864Z,72.70
2018-11-02T20:06:44.023Z,71.00
2018-11-02T20:09:14.513Z,73.37
2018-11-02T20:11:44.266Z,81.90
2018-11-02T20:14:15.818Z,76.17
2018-11-02T20:16:46.192Z,79.00
2018-11-02T20:19:17.426Z,82.17
2018-11-02T20:21:48.628Z,74.13
2018-11-02T20:24:20.944Z,57.10
2018-11-02T20:26:50.512Z,52.20
2018-11-02T20:29:20.664Z,48.20
2018-11-02T20:31:50.591Z,55.27
2018-11-02T20:34:21.381Z,47.27
2018-11-02T20:36:51.454Z,47.53
2018-11-02T20:39:21.458Z,41.33
2018-11-02T20:41:51.482Z,59.50
2018-11-02T20:44:21.383Z,47.53
2018-11-02T20:46:51.111Z,46.93
2018-11-02T20:49:22.068Z,38.40
2018-11-02T20:51:53.037Z,32.13
2018-11-02T20:54:24.450Z,39.53
2018-11-02T20:56:56.578Z,49.27
2018-11-02T20:59:28.869Z,53.40
2018-11-02T21:01:59.011Z,55.03
2018-11-02T21:04:31.134Z,57.50
2018-11-02T21:07:04.229Z,65.57
2018-11-02T21:09:34.291Z,67.33
2018-11-02T21:12:03.910Z,63.97
2018-11-02T21:14:33.894Z,62.70
2018-11-02T21:17:04.596Z,56.53
2018-11-02T21:19:34.258Z,58.93
2018-11-02T21:22:03.794Z,55.00
2018-11-02T21:24:33.170Z,46.00
2018-11-02T21:27:03.226Z,44.60
2018-11-02T21:29:32.812Z,44.77
2018-11-02T21:32:02.409Z,41.77
2018-11-02T21:34:32.191Z,34.93
2018-11-02T21:37:01.749Z,47.83
2018-11-02T21:39:31.207Z,57.87
2018-11-02T21:42:00.685Z,68.67
2018-11-02T21:44:30.441Z,81.50
2018-11-02T21:47:00.122Z,95.57
2018-11-02T21:49:29.812Z,88.33
2018-11-02T21:52:03.493Z,96.33
2018-11-02T21:54:33.050Z,108.23
2018-11-02T21:57:02.716Z,102.03
2018-11-02T21:59:32.191Z,97.83
2018-11-02T22:02:01.836Z,98.47
2018-11-02T22:04:31.379Z,86.63
2018-11-02T22:07:00.932Z,76.87
2018-11-02T22:09:30.521Z,59.37
2018-11-02T22:12:00.074Z,59.30
2018-11-02T22:14:29.836Z,53.23
2018-11-02T22:16:59.368Z,55.63
2018-11-02T22:19:29.217Z,68.73
2018-11-02T22:21:58.684Z,73.17
2018-11-02T22:24:28.252Z,68.47
2018-11-02T22:26:57.830Z,63.23
2018-11-02T22:29:27.505Z,71.17
2018-11-02T22:31:56.984Z,66.67
2018-11-02T22:34:26.466Z,67.73
2018-11-02T22:36:55.837Z,81.37
2018-11-02T22:39:25.295Z,82.63
2018-11-02T22:41:54.903Z,86.70
2018-11-02T22:44:46.076Z,87.13
2018-11-02T22:47:42.359Z,84.70
2018-11-02T22:50:14.425Z,81.60
2018-11-02T22:52:43.993Z,75.87
2018-11-02T22:55:13.433Z,81.03
2018-11-02T22:57:43.069Z,70.17
2018-11-02T23:00:16.273Z,76.07
2018-11-02T23:02:46.680Z,73.17
2018-11-02T23:05:16.310Z,79.77
2018-11-02T23:07:46.135Z,78.67
2018-11-02T23:10:15.705Z,74.70
2018-11-02T23:12:45.236Z,69.00
2018-11-02T23:15:14.724Z,72.17
2018-11-02T23:17:44.192Z,67.13
2018-11-02T23:20:14.770Z,67.77
2018-11-02T23:22:44.153Z,64.27
2018-11-02T23:25:13.784Z,62.57
2018-11-02T23:27:44.516Z,59.30
2018-11-02T23:30:14.092Z,59.83
2018-11-02T23:32:43.512Z,56.70
2018-11-02T23:35:13.121Z,54.70
2018-11-02T23:37:42.688Z,56.23
2018-11-02T23:40:12.961Z,51.83
2018-11-02T23:42:42.436Z,62.17
2018-11-02T23:45:12.373Z,53.67
2018-11-02T23:47:47.151Z,58.47
2018-11-02T23:50:17.424Z,54.63
2018-11-02T23:52:46.903Z,55.97
2018-11-02T23:55:16.437Z,57.40
2018-11-02T23:57:45.946Z,54.40
